createdAt,value
2019-03-19T00:00:00.378Z,967.75
2019-03-19T00:00:59.241Z,967.74
2019-03-19T00:02:00.904Z,967.73
2019-03-19T00:02:59.224Z,967.75
2019-03-19T00:03:59.169Z,967.76
2019-03-19T00:05:00.903Z,967.76
2019-03-19T00:06:01.142Z,967.74
2019-03-19T00:07:00.331Z,967.74
2019-03-19T00:08:00.164Z,967.80
2019-03-19T00:09:00.266Z,967.75
2019-03-19T00:09:59.162Z,967.76
2019-03-19T00:11:02.008Z,967.71
2019-03-19T00:12:02.906Z,967.72
2019-03-19T00:13:00.137Z,967.73
2019-03-19T00:13:59.089Z,967.75
2019-03-19T00:14:59.086Z,967.67
2019-03-19T00:15:59.056Z,967.72
2019-03-19T00:17:00.952Z,967.75
2019-03-19T00:17:59.007Z,967.79
2019-03-19T00:21:15.192Z,967.84
2019-03-19T00:22:14.593Z,967.84
2019-03-19T00:24:09.177Z,967.81
2019-03-19T00:26:26.961Z,967.82
2019-03-19T00:27:25.432Z,967.81
2019-03-19T00:28:25.648Z,967.87
2019-03-19T00:29:25.145Z,967.86
2019-03-19T00:30:25.123Z,967.89
2019-03-19T00:31:24.615Z,967.87
2019-03-19T00:32:25.420Z,967.87
2019-03-19T00:33:25.150Z,967.92
2019-03-19T00:34:26.359Z,967.94
2019-03-19T00:35:25.098Z,967.95
2019-03-19T00:36:24.544Z,967.96
2019-03-19T00:37:25.299Z,967.96
2019-03-19T00:38:24.520Z,967.97
2019-03-19T00:39:24.533Z,967.96
2019-03-19T00:40:24.291Z,968.00
2019-03-19T00:41:24.085Z,967.97
2019-03-19T00:42:24.959Z,967.96
2019-03-19T00:43:24.043Z,967.95
2019-03-19T00:44:24.020Z,967.92
2019-03-19T00:45:24.005Z,967.92
2019-03-19T00:46:24.057Z,967.92
2019-03-19T00:47:24.025Z,967.92
2019-03-19T00:48:24.035Z,967.96
2019-03-19T00:49:23.962Z,967.94
2019-03-19T00:50:24.014Z,967.92
2019-03-19T00:51:24.058Z,967.92
2019-03-19T00:52:23.921Z,967.97
2019-03-19T00:53:23.919Z,967.92
2019-03-19T00:54:23.979Z,968.00
2019-03-19T00:55:23.880Z,968.02
2019-03-19T00:56:23.981Z,967.98
2019-03-19T00:57:23.863Z,968.02
2019-03-19T00:58:23.855Z,967.99
2019-03-19T00:59:23.862Z,968.00
2019-03-19T01:00:23.838Z,967.99
2019-03-19T01:01:23.828Z,967.98
2019-03-19T01:02:23.824Z,968.03
2019-03-19T01:03:23.811Z,968.05
2019-03-19T01:04:23.825Z,968.07
2019-03-19T01:05:23.790Z,968.05
2019-03-19T01:06:23.790Z,968.09
2019-03-19T01:07:23.802Z,968.07
2019-03-19T01:08:23.833Z,968.06
2019-03-19T01:09:23.759Z,968.13
2019-03-19T01:10:23.784Z,968.14
2019-03-19T01:11:23.768Z,968.11
2019-03-19T01:12:23.776Z,968.10
2019-03-19T01:13:23.763Z,968.13
2019-03-19T01:14:23.717Z,968.12
2019-03-19T01:15:23.741Z,968.09
2019-03-19T01:16:23.698Z,968.09
2019-03-19T01:17:23.711Z,968.10
2019-03-19T01:18:23.677Z,968.12
2019-03-19T01:19:23.669Z,968.13
2019-03-19T01:20:23.655Z,968.14
2019-03-19T01:21:23.650Z,968.13
2019-03-19T01:22:23.670Z,968.17
2019-03-19T01:23:23.636Z,968.11
2019-03-19T01:24:23.627Z,968.11
2019-03-19T01:25:23.662Z,968.14
2019-03-19T01:26:23.610Z,968.18
2019-03-19T01:27:23.599Z,968.18
2019-03-19T01:28:23.629Z,968.22
2019-03-19T01:29:23.586Z,968.27
2019-03-19T01:30:23.610Z,968.28
2019-03-19T01:31:23.574Z,968.28
2019-03-19T01:32:23.580Z,968.26
2019-03-19T01:33:23.547Z,968.22
2019-03-19T01:34:23.554Z,968.24
2019-03-19T01:35:23.558Z,968.24
2019-03-19T01:36:23.522Z,968.17
2019-03-19T01:37:23.511Z,968.19
2019-03-19T01:38:23.538Z,968.21
2019-03-19T01:39:23.488Z,968.12
2019-03-19T01:40:23.478Z,968.10
2019-03-19T01:41:23.476Z,968.08
2019-03-19T01:42:23.491Z,968.06
2019-03-19T01:43:23.468Z,968.04
2019-03-19T01:44:23.455Z,968.09
2019-03-19T01:45:23.476Z,968.08
2019-03-19T01:46:23.427Z,968.05
2019-03-19T01:47:23.418Z,968.08
2019-03-19T01:48:23.410Z,968.07
2019-03-19T01:49:23.393Z,968.09
2019-03-19T01:50:23.389Z,968.11
2019-03-19T01:51:23.434Z,968.15
2019-03-19T01:52:23.374Z,968.23
2019-03-19T01:53:23.361Z,968.22
2019-03-19T01:54:23.362Z,968.20
2019-03-19T01:55:25.492Z,968.23
2019-03-19T01:56:23.353Z,968.27
2019-03-19T01:57:23.359Z,968.26
2019-03-19T01:58:23.314Z,968.27
2019-03-19T01:59:23.308Z,968.22
2019-03-19T02:00:23.302Z,968.23
2019-03-19T02:01:23.288Z,968.24
2019-03-19T02:02:23.280Z,968.23
2019-03-19T02:03:23.273Z,968.21
2019-03-19T02:04:23.282Z,968.26
2019-03-19T02:05:23.251Z,968.18
2019-03-19T02:06:23.241Z,968.24
2019-03-19T02:07:23.233Z,968.22
2019-03-19T02:08:23.225Z,968.22
2019-03-19T02:09:23.210Z,968.22
2019-03-19T02:10:23.231Z,968.23
2019-03-19T02:11:23.196Z,968.26
2019-03-19T02:12:23.206Z,968.29
2019-03-19T02:13:23.232Z,968.32
2019-03-19T02:14:23.201Z,968.32
2019-03-19T02:15:23.231Z,968.34
2019-03-19T02:16:23.179Z,968.38
2019-03-19T02:17:23.161Z,968.36
2019-03-19T02:18:23.129Z,968.33
2019-03-19T02:19:23.143Z,968.38
2019-03-19T02:20:23.132Z,968.35
2019-03-19T02:21:23.102Z,968.32
2019-03-19T02:22:23.094Z,968.36
2019-03-19T02:23:23.089Z,968.39
2019-03-19T02:24:23.096Z,968.38
2019-03-19T02:25:23.084Z,968.40
2019-03-19T02:26:23.056Z,968.37
2019-03-19T02:27:23.051Z,968.33
2019-03-19T02:28:23.052Z,968.34
2019-03-19T02:29:23.028Z,968.38
2019-03-19T02:30:23.031Z,968.36
2019-03-19T02:31:23.074Z,968.39
2019-03-19T02:32:23.004Z,968.39
2019-03-19T02:33:22.989Z,968.47
2019-03-19T02:34:23.016Z,968.47
2019-03-19T02:35:22.970Z,968.47
2019-03-19T02:36:22.962Z,968.43
2019-03-19T02:37:22.951Z,968.37
2019-03-19T02:38:22.942Z,968.36
2019-03-19T02:39:22.966Z,968.40
2019-03-19T02:40:22.924Z,968.43
2019-03-19T02:41:22.940Z,968.43
2019-03-19T02:42:22.929Z,968.44
2019-03-19T02:43:23.171Z,968.47
2019-03-19T02:44:22.921Z,968.48
2019-03-19T02:45:22.877Z,968.51
2019-03-19T02:46:22.864Z,968.51
2019-03-19T02:47:22.858Z,968.54
2019-03-19T02:48:22.886Z,968.52
2019-03-19T02:49:22.879Z,968.52
2019-03-19T02:50:22.856Z,968.44
2019-03-19T02:51:22.820Z,968.50
2019-03-19T02:52:22.891Z,968.54
2019-03-19T02:53:22.809Z,968.48
2019-03-19T02:54:22.812Z,968.51
2019-03-19T02:55:22.785Z,968.52
2019-03-19T02:56:32.813Z,968.51
2019-03-19T02:57:22.762Z,968.56
2019-03-19T02:58:22.825Z,968.59
2019-03-19T02:59:22.777Z,968.60
2019-03-19T03:00:22.781Z,968.59
2019-03-19T03:01:22.726Z,968.62
2019-03-19T03:02:22.710Z,968.62
2019-03-19T03:03:22.709Z,968.66
2019-03-19T03:04:22.735Z,968.70
2019-03-19T03:05:22.682Z,968.71
2019-03-19T03:06:22.723Z,968.74
2019-03-19T03:07:22.859Z,968.73
2019-03-19T03:08:22.775Z,968.74
2019-03-19T03:09:22.680Z,968.74
2019-03-19T03:10:22.637Z,968.72
2019-03-19T03:11:22.627Z,968.76
2019-03-19T03:12:22.614Z,968.79
2019-03-19T03:13:22.609Z,968.81
2019-03-19T03:14:22.638Z,968.81
2019-03-19T03:15:22.591Z,968.82
2019-03-19T03:16:22.578Z,968.88
2019-03-19T03:17:22.579Z,968.92
2019-03-19T03:18:22.564Z,968.87
2019-03-19T03:19:22.569Z,968.91
2019-03-19T03:20:22.538Z,968.93
2019-03-19T03:21:22.533Z,968.93
2019-03-19T03:22:22.521Z,968.95
2019-03-19T03:23:22.516Z,968.94
2019-03-19T03:24:22.549Z,968.96
2019-03-19T03:25:22.512Z,968.94
2019-03-19T03:26:22.479Z,968.98
2019-03-19T03:27:22.505Z,968.96
2019-03-19T03:28:22.460Z,968.96
2019-03-19T03:29:22.451Z,968.92
2019-03-19T03:30:22.526Z,968.93
2019-03-19T03:31:22.436Z,968.96
2019-03-19T03:32:22.423Z,968.96
2019-03-19T03:33:22.422Z,968.95
2019-03-19T03:34:22.433Z,968.98
2019-03-19T03:35:22.458Z,968.95
2019-03-19T03:36:22.425Z,968.94
2019-03-19T03:37:22.380Z,968.98
2019-03-19T03:38:22.367Z,968.96
2019-03-19T03:39:22.360Z,968.96
2019-03-19T03:40:22.348Z,968.98
2019-03-19T03:41:22.955Z,969.04
2019-03-19T03:42:22.353Z,969.02
2019-03-19T03:43:22.345Z,969.01
2019-03-19T03:44:22.308Z,969.00
2019-03-19T03:45:22.347Z,969.01
2019-03-19T03:46:22.282Z,968.98
2019-03-19T03:47:22.300Z,969.00
2019-03-19T03:48:22.284Z,969.02
2019-03-19T03:49:22.285Z,969.02
2019-03-19T03:50:22.251Z,968.99
2019-03-19T03:51:22.234Z,969.07
2019-03-19T03:52:22.249Z,969.11
2019-03-19T03:53:22.247Z,969.10
2019-03-19T03:54:22.201Z,969.09
2019-03-19T03:55:22.189Z,969.13
2019-03-19T03:56:22.178Z,969.18
2019-03-19T03:57:22.208Z,969.14
2019-03-19T03:58:22.161Z,969.24
2019-03-19T03:59:22.159Z,969.22
2019-03-19T04:00:22.170Z,969.21
2019-03-19T04:01:22.129Z,969.18
2019-03-19T04:02:22.119Z,969.22
2019-03-19T04:03:22.119Z,969.24
2019-03-19T04:04:22.100Z,969.25
2019-03-19T04:05:22.092Z,969.23
2019-03-19T04:06:22.091Z,969.22
2019-03-19T04:07:22.070Z,969.24
2019-03-19T04:08:22.063Z,969.22
2019-03-19T04:09:22.052Z,969.24
2019-03-19T04:10:22.041Z,969.25
2019-03-19T04:11:22.056Z,969.28
2019-03-19T04:12:22.025Z,969.31
2019-03-19T04:13:22.011Z,969.32
2019-03-19T04:14:21.999Z,969.33
2019-03-19T04:15:21.994Z,969.31
2019-03-19T04:16:21.980Z,969.33
2019-03-19T04:17:21.969Z,969.33
2019-03-19T04:18:21.960Z,969.37
2019-03-19T04:19:22.009Z,969.34
2019-03-19T04:20:21.942Z,969.38
2019-03-19T04:21:21.928Z,969.35
2019-03-19T04:22:21.918Z,969.38
2019-03-19T04:23:21.906Z,969.38
2019-03-19T04:24:21.900Z,969.39
2019-03-19T04:25:21.889Z,969.40
2019-03-19T04:26:21.875Z,969.40
2019-03-19T04:27:22.527Z,969.44
2019-03-19T04:28:22.049Z,969.45
2019-03-19T04:29:21.844Z,969.48
2019-03-19T04:30:21.838Z,969.48
2019-03-19T04:31:21.825Z,969.43
2019-03-19T04:32:21.815Z,969.44
2019-03-19T04:33:21.804Z,969.41
2019-03-19T04:34:21.830Z,969.42
2019-03-19T04:35:21.813Z,969.40
2019-03-19T04:36:21.806Z,969.45
2019-03-19T04:37:21.763Z,969.43
2019-03-19T04:38:21.749Z,969.47
2019-03-19T04:39:21.744Z,969.47
2019-03-19T04:40:21.743Z,969.47
2019-03-19T04:41:21.744Z,969.48
2019-03-19T04:42:21.713Z,969.46
2019-03-19T04:43:21.698Z,969.49
2019-03-19T04:44:21.688Z,969.45
2019-03-19T04:45:21.679Z,969.48
2019-03-19T04:46:21.672Z,969.46
2019-03-19T04:47:21.671Z,969.46
2019-03-19T04:48:21.650Z,969.54
2019-03-19T04:49:21.638Z,969.51
2019-03-19T04:50:21.631Z,969.53
2019-03-19T04:51:21.616Z,969.57
2019-03-19T04:52:21.605Z,969.56
2019-03-19T04:53:24.371Z,969.56
2019-03-19T04:54:21.594Z,969.56
2019-03-19T04:55:21.608Z,969.56
2019-03-19T04:56:21.593Z,969.55
2019-03-19T04:57:26.675Z,969.58
2019-03-19T04:58:21.741Z,969.61
2019-03-19T04:59:21.683Z,969.61
2019-03-19T05:00:22.476Z,969.65
2019-03-19T05:01:21.575Z,969.65
2019-03-19T05:02:21.615Z,969.66
2019-03-19T05:03:21.722Z,969.71
2019-03-19T05:04:21.512Z,969.68
2019-03-19T05:05:21.506Z,969.74
2019-03-19T05:06:21.623Z,969.76
2019-03-19T05:07:21.463Z,969.80
2019-03-19T05:08:21.665Z,969.75
2019-03-19T05:09:21.563Z,969.76
2019-03-19T05:10:21.462Z,969.76
2019-03-19T05:11:21.470Z,969.74
2019-03-19T05:12:21.486Z,969.76
2019-03-19T05:13:21.443Z,969.72
2019-03-19T05:14:21.503Z,969.75
2019-03-19T05:15:21.536Z,969.72
2019-03-19T05:16:21.403Z,969.73
2019-03-19T05:17:21.370Z,969.71
2019-03-19T05:18:21.343Z,969.80
2019-03-19T05:19:21.340Z,969.79
2019-03-19T05:20:21.375Z,969.82
2019-03-19T05:21:22.110Z,969.86
2019-03-19T05:22:21.327Z,969.86
2019-03-19T05:23:21.289Z,969.84
2019-03-19T05:24:21.357Z,969.85
2019-03-19T05:25:21.300Z,969.85
2019-03-19T05:26:21.262Z,969.92
2019-03-19T05:27:21.321Z,969.89
2019-03-19T05:28:21.250Z,969.93
2019-03-19T05:29:21.242Z,969.92
2019-03-19T05:30:28.951Z,969.93
2019-03-19T05:32:19.814Z,969.93
2019-03-19T05:33:20.046Z,969.92
2019-03-19T05:34:19.789Z,969.98
2019-03-19T05:35:20.302Z,969.95
2019-03-19T05:36:19.970Z,969.95
2019-03-19T05:37:20.836Z,969.99
2019-03-19T05:38:19.747Z,969.97
2019-03-19T05:39:22.074Z,969.99
2019-03-19T05:40:20.550Z,969.98
2019-03-19T05:41:20.082Z,969.96
2019-03-19T05:42:19.425Z,970.00
2019-03-19T05:43:19.098Z,970.01
2019-03-19T05:44:20.221Z,970.03
2019-03-19T05:45:19.678Z,970.00
2019-03-19T05:46:22.828Z,970.06
2019-03-19T05:47:36.735Z,970.02
2019-03-19T05:48:19.602Z,970.10
2019-03-19T05:49:20.084Z,970.11
2019-03-19T05:50:19.120Z,970.12
2019-03-19T05:51:20.146Z,970.16
2019-03-19T05:52:20.147Z,970.15
2019-03-19T05:53:20.645Z,970.17
2019-03-19T05:54:20.561Z,970.20
2019-03-19T05:55:20.584Z,970.18
2019-03-19T05:56:20.795Z,970.19
2019-03-19T05:57:22.083Z,970.20
2019-03-19T05:58:18.696Z,970.22
2019-03-19T05:59:21.464Z,970.20
2019-03-19T06:00:18.532Z,970.20
2019-03-19T06:01:18.537Z,970.18
2019-03-19T06:02:18.519Z,970.22
2019-03-19T06:03:18.480Z,970.23
2019-03-19T06:04:18.522Z,970.22
2019-03-19T06:05:20.986Z,970.27
2019-03-19T06:06:18.455Z,970.28
2019-03-19T06:07:18.443Z,970.25
2019-03-19T06:08:18.439Z,970.23
2019-03-19T06:09:18.425Z,970.26
2019-03-19T06:10:18.419Z,970.29
2019-03-19T06:11:18.408Z,970.24
2019-03-19T06:12:18.428Z,970.33
2019-03-19T06:13:18.380Z,970.33
2019-03-19T06:14:18.395Z,970.34
2019-03-19T06:15:18.369Z,970.35
2019-03-19T06:16:18.357Z,970.33
2019-03-19T06:17:18.345Z,970.36
2019-03-19T06:18:18.339Z,970.38
2019-03-19T06:19:18.335Z,970.40
2019-03-19T06:20:18.334Z,970.37
2019-03-19T06:21:18.313Z,970.41
2019-03-19T06:22:18.326Z,970.40
2019-03-19T06:23:19.184Z,970.39
2019-03-19T06:24:19.339Z,970.41
2019-03-19T06:25:18.302Z,970.42
2019-03-19T06:26:18.532Z,970.44
2019-03-19T06:27:18.276Z,970.44
2019-03-19T06:28:18.243Z,970.40
2019-03-19T06:29:18.499Z,970.45
2019-03-19T06:30:18.229Z,970.43
2019-03-19T06:31:18.213Z,970.41
2019-03-19T06:32:18.205Z,970.41
2019-03-19T06:33:18.389Z,970.42
2019-03-19T06:34:18.188Z,970.41
2019-03-19T06:35:18.221Z,970.44
2019-03-19T06:36:18.184Z,970.47
2019-03-19T06:37:19.088Z,970.47
2019-03-19T06:38:18.341Z,970.44
2019-03-19T06:39:18.235Z,970.48
2019-03-19T06:40:18.421Z,970.52
2019-03-19T06:41:18.874Z,970.51
2019-03-19T06:42:18.206Z,970.50
2019-03-19T06:43:18.107Z,970.52
2019-03-19T06:44:18.130Z,970.53
2019-03-19T06:45:18.104Z,970.55
2019-03-19T06:46:18.123Z,970.51
2019-03-19T06:47:18.172Z,970.60
2019-03-19T06:48:18.940Z,970.69
2019-03-19T06:49:18.088Z,970.69
2019-03-19T06:50:18.673Z,970.72
2019-03-19T06:51:18.319Z,970.80
2019-03-19T06:52:18.037Z,970.84
2019-03-19T06:53:18.022Z,970.80
2019-03-19T06:54:18.023Z,970.85
2019-03-19T06:55:19.639Z,970.87
2019-03-19T06:56:18.021Z,970.92
2019-03-19T06:57:17.996Z,970.94
2019-03-19T06:58:17.988Z,971.00
2019-03-19T06:59:17.990Z,971.03
2019-03-19T07:00:18.091Z,971.08
2019-03-19T07:01:17.972Z,971.28
2019-03-19T07:02:17.964Z,971.35
2019-03-19T07:03:17.994Z,971.46
2019-03-19T07:04:17.981Z,971.51
2019-03-19T07:05:19.697Z,971.55
2019-03-19T07:06:17.971Z,971.68
2019-03-19T07:07:17.984Z,971.91
2019-03-19T07:08:17.986Z,972.48
2019-03-19T07:09:17.944Z,972.95
2019-03-19T07:10:17.992Z,972.99
2019-03-19T07:11:19.663Z,972.68
2019-03-19T07:12:17.989Z,972.30
2019-03-19T07:13:17.943Z,972.04
2019-03-19T07:14:17.936Z,971.91
2019-03-19T07:15:17.966Z,971.92
2019-03-19T07:16:17.947Z,971.83
2019-03-19T07:17:18.072Z,971.82
2019-03-19T07:18:17.995Z,971.81
2019-03-19T07:19:17.956Z,971.82
2019-03-19T07:20:17.963Z,971.78
2019-03-19T07:21:18.056Z,971.68
2019-03-19T07:22:17.955Z,971.65
2019-03-19T07:23:17.944Z,971.70
2019-03-19T07:24:17.988Z,971.75
2019-03-19T07:25:17.980Z,971.76
2019-03-19T07:26:17.964Z,971.77
2019-03-19T07:27:18.045Z,971.75
2019-03-19T07:28:21.901Z,971.82
2019-03-19T07:29:17.960Z,971.84
2019-03-19T07:30:18.017Z,971.80
2019-03-19T07:31:18.601Z,971.79
2019-03-19T07:32:17.993Z,971.68
2019-03-19T07:33:18.594Z,971.52
2019-03-19T07:34:18.304Z,971.85
2019-03-19T07:35:17.991Z,971.87
2019-03-19T07:36:17.970Z,971.83
2019-03-19T07:37:18.878Z,971.90
2019-03-19T07:38:17.974Z,971.98
2019-03-19T07:39:17.999Z,971.97
2019-03-19T07:40:17.984Z,972.01
2019-03-19T07:41:17.984Z,972.06
2019-03-19T07:42:19.654Z,972.00
2019-03-19T07:43:18.033Z,971.99
2019-03-19T07:44:18.016Z,972.04
2019-03-19T07:45:18.006Z,972.03
2019-03-19T07:46:18.002Z,972.05
2019-03-19T07:47:18.035Z,972.06
2019-03-19T07:48:18.222Z,972.25
2019-03-19T07:49:18.346Z,972.46
2019-03-19T07:50:18.034Z,972.53
2019-03-19T07:51:18.025Z,972.58
2019-03-19T07:52:18.066Z,972.74
2019-03-19T07:53:18.092Z,972.72
2019-03-19T07:54:18.046Z,972.53
2019-03-19T07:55:18.066Z,972.30
2019-03-19T07:56:18.247Z,971.88
2019-03-19T07:57:18.084Z,971.63
2019-03-19T07:58:18.148Z,971.67
2019-03-19T07:59:18.072Z,971.66
2019-03-19T08:00:18.125Z,971.70
2019-03-19T08:01:18.078Z,972.01
2019-03-19T08:02:18.979Z,972.00
2019-03-19T08:03:18.087Z,971.72
2019-03-19T08:04:18.249Z,972.44
2019-03-19T08:05:18.322Z,971.69
2019-03-19T08:06:18.128Z,971.60
2019-03-19T08:07:18.116Z,971.71
2019-03-19T08:08:19.825Z,971.69
2019-03-19T08:09:18.139Z,971.73
2019-03-19T08:10:18.684Z,971.74
2019-03-19T08:11:18.175Z,971.70
2019-03-19T08:12:18.164Z,971.65
2019-03-19T08:13:18.122Z,971.59
2019-03-19T08:14:18.224Z,971.69
2019-03-19T08:15:18.133Z,971.75
2019-03-19T08:16:27.161Z,971.74
2019-03-19T08:17:18.946Z,971.80
2019-03-19T08:18:18.207Z,971.80
2019-03-19T08:19:25.663Z,972.24
2019-03-19T08:21:12.073Z,971.98
2019-03-19T08:22:11.546Z,971.92
2019-03-19T08:24:07.623Z,971.83
2019-03-19T08:25:08.749Z,971.87
2019-03-19T08:27:02.349Z,971.85
2019-03-19T08:27:59.839Z,971.84
2019-03-19T08:28:59.657Z,971.84
2019-03-19T08:29:59.825Z,971.87
2019-03-19T08:30:59.867Z,971.86
2019-03-19T08:31:59.855Z,971.94
2019-03-19T08:32:59.672Z,971.89
2019-03-19T08:34:00.229Z,971.89
2019-03-19T08:35:01.531Z,971.93
2019-03-19T08:36:08.966Z,972.01
2019-03-19T08:37:01.293Z,972.22
2019-03-19T08:38:01.157Z,972.23
2019-03-19T08:38:59.564Z,972.12
2019-03-19T08:40:00.383Z,972.12
2019-03-19T08:40:59.560Z,972.09
2019-03-19T08:41:59.875Z,972.09
2019-03-19T08:43:00.267Z,972.11
2019-03-19T08:43:59.642Z,972.07
2019-03-19T08:45:01.026Z,972.04
2019-03-19T08:45:59.560Z,972.09
2019-03-19T08:46:59.608Z,972.08
2019-03-19T08:47:59.534Z,973.31
2019-03-19T08:48:59.618Z,973.50
2019-03-19T08:50:01.165Z,973.57
2019-03-19T08:51:01.168Z,972.45
2019-03-19T08:51:59.903Z,972.58
2019-03-19T08:52:59.613Z,973.19
2019-03-19T08:54:08.007Z,972.41
2019-03-19T08:55:53.342Z,973.16
2019-03-19T08:56:55.403Z,972.35
2019-03-19T08:58:46.236Z,972.21
2019-03-19T08:59:46.563Z,972.19
2019-03-19T09:01:40.470Z,973.43
2019-03-19T09:02:40.125Z,972.79
2019-03-19T09:03:40.168Z,972.36
2019-03-19T09:04:40.074Z,972.32
2019-03-19T09:05:41.064Z,972.35
2019-03-19T09:06:40.054Z,972.31
2019-03-19T09:07:41.740Z,972.30
2019-03-19T09:08:40.043Z,972.26
2019-03-19T09:09:40.212Z,972.28
2019-03-19T09:10:41.751Z,972.32
2019-03-19T09:11:40.046Z,972.50
2019-03-19T09:12:40.127Z,973.40
2019-03-19T09:13:40.061Z,973.77
2019-03-19T09:14:40.060Z,972.59
2019-03-19T09:15:42.317Z,973.81
2019-03-19T09:16:40.189Z,973.85
2019-03-19T09:17:40.267Z,973.87
2019-03-19T09:18:40.745Z,973.88
2019-03-19T09:19:42.119Z,973.68
2019-03-19T09:20:40.828Z,973.98
2019-03-19T09:21:40.431Z,973.50
2019-03-19T09:22:40.279Z,972.71
2019-03-19T09:23:40.288Z,972.66
2019-03-19T09:24:40.426Z,972.53
2019-03-19T09:25:40.101Z,972.48
2019-03-19T09:26:40.616Z,972.52
2019-03-19T09:27:40.127Z,973.59
2019-03-19T09:28:40.313Z,972.45
2019-03-19T09:29:42.877Z,972.48
2019-03-19T09:30:40.176Z,972.43
2019-03-19T09:31:40.136Z,972.39
2019-03-19T09:32:40.233Z,972.41
2019-03-19T09:33:40.143Z,972.41
2019-03-19T09:34:40.322Z,972.44
2019-03-19T09:35:41.076Z,972.44
2019-03-19T09:36:40.114Z,972.50
2019-03-19T09:37:44.521Z,972.68
2019-03-19T09:38:40.540Z,972.87
2019-03-19T09:39:49.286Z,973.17
2019-03-19T09:40:40.156Z,973.27
2019-03-19T09:41:40.128Z,973.02
2019-03-19T09:42:54.767Z,973.95
2019-03-19T09:43:40.237Z,973.99
2019-03-19T09:44:40.227Z,973.35
2019-03-19T09:45:40.927Z,974.02
2019-03-19T09:47:05.792Z,974.03
2019-03-19T09:47:40.199Z,972.75
2019-03-19T09:48:42.960Z,972.73
2019-03-19T09:49:40.650Z,973.41
2019-03-19T09:50:40.441Z,974.00
2019-03-19T09:51:40.839Z,974.04
2019-03-19T09:52:40.767Z,973.95
2019-03-19T09:53:41.644Z,973.44
2019-03-19T09:54:40.240Z,972.72
2019-03-19T09:55:40.242Z,973.04
2019-03-19T09:56:40.453Z,973.91
2019-03-19T09:57:40.221Z,973.57
2019-03-19T09:58:41.191Z,972.69
2019-03-19T09:59:43.511Z,972.66
2019-03-19T10:00:40.244Z,972.65
2019-03-19T10:01:40.279Z,972.61
2019-03-19T10:02:40.307Z,972.61
2019-03-19T10:03:42.854Z,972.67
2019-03-19T10:04:40.280Z,972.60
2019-03-19T10:05:40.932Z,972.57
2019-03-19T10:06:40.291Z,972.57
2019-03-19T10:07:40.822Z,972.54
2019-03-19T10:08:40.453Z,972.50
2019-03-19T10:09:41.105Z,972.56
2019-03-19T10:10:41.233Z,972.58
2019-03-19T10:11:40.325Z,972.56
2019-03-19T10:12:40.456Z,972.52
2019-03-19T10:13:40.531Z,972.57
2019-03-19T10:14:40.352Z,972.69
2019-03-19T10:15:41.865Z,972.67
2019-03-19T10:16:40.427Z,972.65
2019-03-19T10:17:40.298Z,972.62
2019-03-19T10:18:41.430Z,972.66
2019-03-19T10:19:41.314Z,972.64
2019-03-19T10:20:41.292Z,972.61
2019-03-19T10:21:41.328Z,972.58
2019-03-19T10:22:40.716Z,972.60
2019-03-19T10:23:40.294Z,972.60
2019-03-19T10:24:42.360Z,972.60
2019-03-19T10:25:40.284Z,972.55
2019-03-19T10:26:40.434Z,972.54
2019-03-19T10:27:40.282Z,972.56
2019-03-19T10:28:40.466Z,972.55
2019-03-19T10:29:42.315Z,972.55
2019-03-19T10:30:40.404Z,972.63
2019-03-19T10:31:44.222Z,972.62
2019-03-19T10:32:40.501Z,972.66
2019-03-19T10:33:40.636Z,972.61
2019-03-19T10:34:40.273Z,972.65
2019-03-19T10:35:40.583Z,972.71
2019-03-19T10:36:40.377Z,972.71
2019-03-19T10:37:40.668Z,972.77
2019-03-19T10:38:41.278Z,972.74
2019-03-19T10:39:40.269Z,972.76
2019-03-19T10:40:41.790Z,972.75
2019-03-19T10:41:40.365Z,972.71
2019-03-19T10:42:41.447Z,972.73
2019-03-19T10:43:41.773Z,972.76
2019-03-19T10:44:40.270Z,972.76
2019-03-19T10:45:40.360Z,972.71
2019-03-19T10:46:40.488Z,972.72
2019-03-19T10:47:40.831Z,972.71
2019-03-19T10:48:40.308Z,972.66
2019-03-19T10:49:41.328Z,972.73
2019-03-19T10:50:40.365Z,972.73
2019-03-19T10:51:40.415Z,972.76
2019-03-19T10:52:40.316Z,972.75
2019-03-19T10:53:40.590Z,972.75
2019-03-19T10:54:40.339Z,972.81
2019-03-19T10:55:40.838Z,972.79
2019-03-19T10:56:40.256Z,972.81
2019-03-19T10:57:40.422Z,972.80
2019-03-19T10:58:40.571Z,972.73
2019-03-19T10:59:48.926Z,972.72
2019-03-19T11:00:40.668Z,972.74
2019-03-19T11:01:41.832Z,972.72
2019-03-19T11:02:40.473Z,972.73
2019-03-19T11:03:41.085Z,972.73
2019-03-19T11:04:40.278Z,972.77
2019-03-19T11:05:49.453Z,972.76
2019-03-19T11:07:39.069Z,972.79
2019-03-19T11:08:35.115Z,972.72
2019-03-19T11:10:28.625Z,972.78
2019-03-19T11:11:28.188Z,972.78
2019-03-19T11:13:20.745Z,972.82
2019-03-19T11:14:20.296Z,972.85
2019-03-19T11:16:15.296Z,972.84
2019-03-19T11:17:14.756Z,972.77
2019-03-19T11:19:07.039Z,972.74
2019-03-19T11:20:07.544Z,972.72
2019-03-19T11:22:03.250Z,972.76
2019-03-19T11:23:00.897Z,972.69
2019-03-19T11:24:54.436Z,972.77
2019-03-19T11:25:54.812Z,972.73
2019-03-19T11:27:48.713Z,972.75
2019-03-19T11:28:48.413Z,972.75
2019-03-19T11:30:41.261Z,972.80
2019-03-19T11:31:40.865Z,972.82
2019-03-19T11:33:34.333Z,972.82
2019-03-19T11:34:33.950Z,972.76
2019-03-19T11:36:27.851Z,972.72
2019-03-19T11:37:27.806Z,972.74
2019-03-19T11:39:22.274Z,972.73
2019-03-19T11:40:21.672Z,972.74
2019-03-19T11:42:13.689Z,972.76
2019-03-19T11:43:14.040Z,972.70
2019-03-19T11:45:07.820Z,972.74
2019-03-19T11:46:06.818Z,972.78
2019-03-19T11:48:00.585Z,972.76
2019-03-19T11:49:00.261Z,972.76
2019-03-19T11:50:54.873Z,972.76
2019-03-19T11:51:53.658Z,972.74
2019-03-19T11:53:47.222Z,972.72
2019-03-19T11:54:47.150Z,972.74
2019-03-19T11:56:40.080Z,972.79
2019-03-19T11:57:39.832Z,972.81
2019-03-19T11:59:33.091Z,972.82
2019-03-19T12:00:32.966Z,972.85
2019-03-19T12:02:26.686Z,972.81
2019-03-19T12:03:26.124Z,972.76
2019-03-19T12:05:20.036Z,972.78
2019-03-19T12:06:19.546Z,972.79
2019-03-19T12:08:11.946Z,972.76
2019-03-19T12:09:11.737Z,972.78
2019-03-19T12:11:05.322Z,972.73
2019-03-19T12:12:05.219Z,972.76
2019-03-19T12:13:58.581Z,972.75
2019-03-19T12:14:58.400Z,972.75
2019-03-19T12:16:51.484Z,972.79
2019-03-19T12:17:51.267Z,972.73
2019-03-19T12:19:44.225Z,972.78
2019-03-19T12:20:44.030Z,972.80
2019-03-19T12:22:37.220Z,972.80
2019-03-19T12:23:36.896Z,972.82
2019-03-19T12:25:31.193Z,972.93
2019-03-19T12:26:29.797Z,972.89
2019-03-19T12:28:23.045Z,972.90
2019-03-19T12:29:22.666Z,972.88
2019-03-19T12:31:16.011Z,972.84
2019-03-19T12:32:15.931Z,972.89
2019-03-19T12:34:09.221Z,972.88
2019-03-19T12:35:08.446Z,972.82
2019-03-19T12:37:01.531Z,972.89
2019-03-19T12:38:01.259Z,972.86
2019-03-19T12:39:55.077Z,972.85
2019-03-19T12:40:54.726Z,972.84
2019-03-19T12:42:48.410Z,972.91
2019-03-19T12:43:47.811Z,972.88
2019-03-19T12:45:41.329Z,972.85
2019-03-19T12:46:40.723Z,972.84
2019-03-19T12:48:34.358Z,972.80
2019-03-19T12:49:34.278Z,972.77
2019-03-19T12:51:27.245Z,972.84
2019-03-19T12:52:27.022Z,972.85
2019-03-19T12:54:20.151Z,972.88
2019-03-19T12:55:19.766Z,972.85
2019-03-19T12:57:13.154Z,972.85
2019-03-19T12:58:12.746Z,972.82
2019-03-19T13:00:06.833Z,972.84
2019-03-19T13:01:05.599Z,972.85
2019-03-19T13:02:58.867Z,972.84
2019-03-19T13:03:58.798Z,972.81
2019-03-19T13:05:52.230Z,972.75
2019-03-19T13:06:51.978Z,972.72
2019-03-19T13:08:46.173Z,972.76
2019-03-19T13:09:44.720Z,972.76
2019-03-19T13:11:39.039Z,972.78
2019-03-19T13:12:38.398Z,972.77
2019-03-19T13:14:32.983Z,972.77
2019-03-19T13:15:31.530Z,972.81
2019-03-19T13:17:26.129Z,972.77
2019-03-19T13:18:25.953Z,972.77
2019-03-19T13:20:18.739Z,972.73